Terminal Aerodrome Forecast
Issued by NWS

Home | Current Version | Previous Version | Text Only | Print | Product List | Glossary On
Versions: 1 2 3 4 5 6 7 8 9 10 11 12 13
369
FTPA31 PHFO 250532
TAFHOG
TAF
PHOG 250532Z 2506/2606 09009KT P6SM VCSH FEW015 SCT025 BKN060
     FM251000 15005KT P6SM VCSH FEW010 SCT020 OVC050
      TEMPO 2510/2514 4SM SHRA BKN020 OVC035
     FM251900 02011KT P6SM VCSH SCT025 BKN050
     FM260500 VRB05KT P6SM VCSH SCT020 BKN060
      AMD LTD TO VIS AND WIND 2509/2516=

USA.gov is the U.S. government's official web portal to all federal, state and local government web resources and services.